Time;durP1;ratioP1;P1;durP2;ratioP2;P2;SDS_P1;SDS_P2;PMS_P1;PMS_P2;Temp;Humidity;BMP_temperature;BMP_pressure;BME280_temperature;BME280_humidity;BME280_pressure;Samples;Min_cycle;Max_cycle;Signal;HPM_P1;HPM_P2
2022/03/03 05:10:43;;;;;;;;;;;;;;;6.41;79.44;96900.34;4244626;27;10310;-65
2022/03/03 05:12:45;;;;;;;;;;;;;;;6.34;79.67;96898.50;4246407;27;5617;-64
2022/03/03 05:14:47;;;;;;;;;;;;;;;6.17;79.15;96902.13;4243597;27;5605;-65
2022/03/03 05:16:48;;;;;;;;;;;;;;;6.42;77.92;96898.53;4234685;27;5648;-64
2022/03/03 05:18:50;;;;;;;;;;;;;;;6.45;77.11;96895.56;4243833;27;5593;-64
2022/03/03 05:20:52;;;;;;;;;;;;;;;6.62;75.97;96891.94;4241496;27;5612;-64
2022/03/03 05:22:57;;;;;;;;;;;;;;;6.69;75.66;96895.56;4241262;27;5625;-64
2022/03/03 05:24:58;;;;;;;;;;;;;;;6.70;74.99;96888.50;4246822;27;5609;-66
2022/03/03 05:27:00;;;;;;;;;;;;;;;6.77;74.19;96897.34;4238016;27;6308;-65
2022/03/03 05:29:02;;;;;;;;;;;;;;;6.83;73.59;96904.56;4247392;27;5684;-65
2022/03/03 05:31:04;;;;;;;;;;;;;;;6.79;73.41;96890.09;4236178;27;5601;-66
2022/03/03 05:33:06;;;;;;;;;;;;;;;6.81;72.87;96893.41;4235163;27;5721;-65
2022/03/03 05:35:08;;;;;;;;;;;;;;;6.85;72.25;96892.09;4245606;27;5621;-66
2022/03/03 05:37:10;;;;;;;;;;;;;;;6.85;72.21;96897.34;4246564;27;5750;-65
2022/03/03 05:39:11;;;;;;;;;;;;;;;6.86;71.92;96896.34;4238273;27;5707;-65
2022/03/03 05:41:13;;;;;;;;;;;;;;;6.89;71.38;96896.00;4237860;27;5840;-65
2022/03/03 05:43:15;;;;;;;;;;;;;;;6.90;70.84;96895.00;4244987;27;6290;-66
2022/03/03 05:45:17;;;;;;;;;;;;;;;6.87;70.80;96898.00;4241402;27;5705;-66
2022/03/03 05:47:19;;;;;;;;;;;;;;;6.85;70.76;96897.34;4229954;28;5627;-65
2022/03/03 05:49:22;;;;;;;;;;;;;;;6.83;70.69;96899.31;4232947;27;5623;-66
2022/03/03 05:51:24;;;;;;;;;;;;;;;6.80;70.07;96898.84;4230535;28;5616;-65
2022/03/03 05:53:25;;;;;;;;;;;;;;;6.78;69.83;96890.28;4230334;28;5705;-66
2022/03/03 05:55:29;;;;;;;;;;;;;;;6.67;69.95;96888.81;4243856;27;5786;-66
2022/03/03 05:57:45;;;;;;;;;;;;;;;6.56;70.38;96897.03;4216389;28;5710;-66
2022/03/03 05:59:49;;;;;;;;;;;;;;;6.68;70.05;96891.31;4230175;28;6285;-66
2022/03/03 06:01:51;;;;;;;;;;;;;;;6.69;70.11;96894.75;4232759;27;6499;-67
2022/03/03 06:03:59;;;;;;;;;;;;;;;6.75;69.98;96890.63;4230196;28;5631;-65
2022/03/03 06:06:11;;;;;;;;;;;;;;;6.79;69.65;96891.91;4236516;27;5700;-67
2022/03/03 06:08:18;;;;;;;;;;;;;;;6.74;70.04;96889.81;4242035;27;5633;-66
2022/03/03 06:10:23;;;;;;;;;;;;;;;6.75;70.07;96885.38;4235925;27;5616;-67
2022/03/03 06:12:40;;;;;;;;;;;;;;;6.70;70.21;96888.50;4220294;28;6419;-67
2022/03/03 06:14:57;;;;;;;;;;;;;;;6.67;70.51;96884.38;4225971;28;6271;-65
2022/03/03 06:16:59;;;;;;;;;;;;;;;6.69;70.80;96881.63;4235665;28;5637;-67
2022/03/03 06:19:02;;;;;;;;;;;;;;;6.65;70.99;96885.53;4235550;28;5696;-66
2022/03/03 06:21:04;;;;;;;;;;;;;;;6.65;70.81;96893.41;4235909;28;5800;-66
2022/03/03 06:23:06;;;;;;;;;;;;;;;6.66;70.98;96882.75;4235815;28;5616;-66
2022/03/03 06:25:08;;;;;;;;;;;;;;;6.66;71.27;96892.44;4229451;28;5616;-66
2022/03/03 06:27:10;;;;;;;;;;;;;;;6.69;71.29;96886.88;4223465;28;5696;-66
2022/03/03 06:29:13;;;;;;;;;;;;;;;6.74;70.82;96895.06;4221394;28;5727;-66
2022/03/03 06:31:15;;;;;;;;;;;;;;;6.74;71.04;96888.97;4219522;28;5672;-66
2022/03/03 06:33:17;;;;;;;;;;;;;;;6.76;70.77;96885.19;4233208;28;5597;-65
2022/03/03 06:35:18;;;;;;;;;;;;;;;6.76;70.80;96890.44;4234724;28;5095;-65
2022/03/03 06:37:20;;;;;;;;;;;;;;;6.78;70.73;96901.59;4234585;28;5727;-65
2022/03/03 06:39:22;;;;;;;;;;;;;;;6.70;71.05;96889.31;4234520;28;5685;-65
2022/03/03 06:41:25;;;;;;;;;;;;;;;6.74;70.80;96895.06;4235051;28;5625;-65
2022/03/03 06:43:29;;;;;;;;;;;;;;;6.80;70.48;96896.22;4235332;28;5075;-66
2022/03/03 06:45:32;;;;;;;;;;;;;;;6.87;70.52;96897.16;4218495;28;5737;-66
2022/03/03 06:47:34;;;;;;;;;;;;;;;6.84;70.52;96900.13;4218225;28;5770;-65
2022/03/03 06:49:35;;;;;;;;;;;;;;;6.85;70.68;96897.34;4218135;28;5652;-66
2022/03/03 06:51:41;;;;;;;;;;;;;;;6.82;70.57;96891.59;4220290;28;5693;-65
2022/03/03 06:53:45;;;;;;;;;;;;;;;6.84;70.56;96893.06;4235180;28;5597;-66
2022/03/03 06:55:49;;;;;;;;;;;;;;;6.83;71.41;96899.31;4234505;28;5631;-66
2022/03/03 06:57:56;;;;;;;;;;;;;;;6.86;71.57;96893.72;4227999;28;5751;-67
2022/03/03 07:00:01;;;;;;;;;;;;;;;6.87;72.23;96894.53;4234211;28;5630;-69
2022/03/03 07:02:04;;;;;;;;;;;;;;;6.87;73.00;96895.34;4233514;28;5714;-67
2022/03/03 07:04:08;;;;;;;;;;;;;;;6.75;73.46;96895.88;4234434;28;5924;-65
2022/03/03 07:17:37;;;;;;;;;;;;;;;6.81;73.15;96896.03;4245709;27;10197;-64
2022/03/03 07:19:39;;;;;;;;;;;;;;;6.77;73.36;96897.34;4231169;28;5784;-65
2022/03/03 07:22:09;;;;;;;;;;;;;;;6.85;72.68;96897.34;4230809;28;5017;-70
2022/03/03 07:24:32;;;;;;;;;;;;;;;6.85;72.48;96896.53;4233515;27;5115;-74
2022/03/03 07:26:34;;;;;;;;;;;;;;;6.66;72.79;96898.50;4248020;27;7706;-65
2022/03/03 07:28:44;;;;;;;;;;;;;;;6.56;73.75;96891.78;4247472;27;5618;-68
2022/03/03 07:30:49;;;;;;;;;;;;;;;6.42;74.62;96886.22;4248063;27;6289;-65
2022/03/03 07:33:06;;;;;;;;;;;;;;;6.69;73.49;96886.88;4247769;27;5726;-64
2022/03/03 07:35:12;;;;;;;;;;;;;;;6.87;72.85;96890.09;4247715;27;6339;-64
2022/03/03 07:37:18;;;;;;;;;;;;;;;6.92;74.78;96882.56;4247526;27;5788;-65
2022/03/03 07:39:22;;;;;;;;;;;;;;;6.95;73.47;96894.53;4247566;27;5711;-66
2022/03/03 07:41:26;;;;;;;;;;;;;;;6.79;72.78;96887.47;4247592;27;5662;-65
2022/03/03 07:43:29;;;;;;;;;;;;;;;6.92;71.94;96893.06;4247853;27;5643;-65
2022/03/03 07:45:30;;;;;;;;;;;;;;;6.81;71.74;96880.28;4247529;27;5859;-66
2022/03/03 07:47:34;;;;;;;;;;;;;;;6.87;70.91;96887.47;4247629;27;5671;-65
2022/03/03 07:49:40;;;;;;;;;;;;;;;6.80;71.22;96877.81;4247633;27;5852;-65
2022/03/03 07:51:44;;;;;;;;;;;;;;;6.70;71.41;96878.81;4247271;27;5625;-65
2022/03/03 07:53:47;;;;;;;;;;;;;;;6.74;71.17;96881.91;4247596;27;5684;-65
2022/03/03 07:55:54;;;;;;;;;;;;;;;6.87;71.48;96884.84;4247098;27;5606;-64
2022/03/03 07:58:02;;;;;;;;;;;;;;;6.74;70.96;96879.28;4247689;27;5593;-64
2022/03/03 08:00:09;;;;;;;;;;;;;;;6.65;71.66;96880.28;4247716;27;5617;-64
2022/03/03 08:02:19;;;;;;;;;;;;;;;6.89;71.21;96877.63;4247647;27;5806;-65
2022/03/03 08:04:26;;;;;;;;;;;;;;;7.08;70.04;96865.09;4247172;27;5704;-64
2022/03/03 08:06:30;;;;;;;;;;;;;;;7.14;69.71;96873.13;4246930;27;5602;-64
2022/03/03 08:08:32;;;;;;;;;;;;;;;7.14;69.52;96870.50;4247452;27;5609;-65
2022/03/03 08:10:34;;;;;;;;;;;;;;;7.13;69.49;96883.78;4247040;27;5609;-64
2022/03/03 08:12:37;;;;;;;;;;;;;;;7.16;69.19;96863.25;4247310;27;5637;-66
2022/03/03 08:14:40;;;;;;;;;;;;;;;7.20;69.06;96871.63;4247576;27;5618;-66
2022/03/03 08:16:44;;;;;;;;;;;;;;;7.18;67.72;96865.72;4230654;27;5862;-65
2022/03/03 08:18:48;;;;;;;;;;;;;;;7.04;68.55;96871.69;4235925;28;5609;-67
2022/03/03 08:20:51;;;;;;;;;;;;;;;6.99;71.01;96873.00;4236037;28;5700;-65
2022/03/03 08:22:53;;;;;;;;;;;;;;;6.99;71.52;96870.34;4235666;28;5610;-65
2022/03/03 08:24:57;;;;;;;;;;;;;;;7.18;71.00;96865.72;4235779;28;5602;-65
2022/03/03 08:27:00;;;;;;;;;;;;;;;7.27;70.57;96873.41;4235728;28;5653;-65
2022/03/03 08:29:02;;;;;;;;;;;;;;;7.37;69.98;96875.84;4235772;28;5606;-65
2022/03/03 08:31:07;;;;;;;;;;;;;;;7.41;70.32;96874.50;4235954;28;5598;-66
2022/03/03 08:33:18;;;;;;;;;;;;;;;7.43;70.43;96869.88;4235924;28;6279;-65
2022/03/03 08:35:27;;;;;;;;;;;;;;;7.43;70.18;96879.56;4235846;28;5609;-65
2022/03/03 08:37:38;;;;;;;;;;;;;;;7.49;69.93;96873.66;4235301;28;5626;-66
2022/03/03 08:39:40;;;;;;;;;;;;;;;7.36;70.04;96878.59;4235763;28;5629;-65
2022/03/03 08:41:43;;;;;;;;;;;;;;;7.41;69.58;96876.31;4235457;28;6283;-65
2022/03/03 08:43:49;;;;;;;;;;;;;;;7.57;66.55;96871.78;4235406;28;5605;-65
2022/03/03 08:45:51;;;;;;;;;;;;;;;7.32;64.84;96870.25;4235910;28;5720;-65
2022/03/03 08:47:57;;;;;;;;;;;;;;;7.53;64.67;96878.38;4235437;28;5602;-65
2022/03/03 08:50:08;;;;;;;;;;;;;;;7.20;65.20;96869.81;4235277;28;5613;-65
2022/03/03 08:52:28;;;;;;;;;;;;;;;7.29;64.91;96868.78;4235058;28;5860;-66
2022/03/03 08:54:30;;;;;;;;;;;;;;;7.39;66.93;96873.84;4235369;28;6932;-65
2022/03/03 08:56:32;;;;;;;;;;;;;;;7.49;67.08;96868.38;4235330;28;5804;-65
2022/03/03 08:58:35;;;;;;;;;;;;;;;7.45;66.36;96867.88;4235059;28;5668;-65
2022/03/03 09:00:37;;;;;;;;;;;;;;;7.57;66.20;96863.88;4233897;28;5609;-65
2022/03/03 09:02:43;;;;;;;;;;;;;;;7.44;65.76;96861.00;4235386;28;5680;-65
2022/03/03 09:04:46;;;;;;;;;;;;;;;7.52;66.70;96866.22;4235553;28;5659;-64
2022/03/03 09:06:48;;;;;;;;;;;;;;;7.55;67.27;96862.41;4234528;28;5667;-65
2022/03/03 09:08:49;;;;;;;;;;;;;;;7.66;67.51;96863.84;4234104;28;5772;-65
2022/03/03 09:10:51;;;;;;;;;;;;;;;7.84;67.29;96869.66;4235199;27;5778;-66
2022/03/03 09:12:53;;;;;;;;;;;;;;;7.80;68.83;96871.81;4234956;28;5757;-65
2022/03/03 09:14:55;;;;;;;;;;;;;;;7.64;69.85;96866.66;4235298;28;5676;-64
2022/03/03 09:16:56;;;;;;;;;;;;;;;7.68;69.26;96862.66;4234471;28;5605;-65
2022/03/03 09:18:59;;;;;;;;;;;;;;;7.48;70.88;96862.31;4222833;28;5684;-64
2022/03/03 09:21:01;;;;;;;;;;;;;;;7.68;70.19;96862.66;4218268;28;5807;-66
2022/03/03 09:23:03;;;;;;;;;;;;;;;7.86;68.57;96862.41;4217557;28;5955;-65
2022/03/03 09:25:05;;;;;;;;;;;;;;;7.95;67.95;96861.38;4218127;28;5673;-65
2022/03/03 09:27:08;;;;;;;;;;;;;;;7.81;66.71;96867.38;4217889;28;5759;-64
2022/03/03 09:29:10;;;;;;;;;;;;;;;7.79;66.88;96859.66;4217146;28;5704;-67
2022/03/03 09:31:12;;;;;;;;;;;;;;;8.00;67.01;96856.38;4218002;28;5684;-67
2022/03/03 09:33:14;;;;;;;;;;;;;;;8.05;67.55;96854.06;4217865;28;5669;-65
2022/03/03 09:35:16;;;;;;;;;;;;;;;8.21;67.73;96852.28;4217346;28;6118;-65
2022/03/03 09:37:18;;;;;;;;;;;;;;;8.24;66.15;96842.22;4217627;28;5791;-66
2022/03/03 09:39:20;;;;;;;;;;;;;;;8.20;68.03;96850.66;4217815;28;5708;-65
2022/03/03 09:41:21;;;;;;;;;;;;;;;8.29;68.36;96846.97;4217306;28;5752;-65
2022/03/03 09:43:25;;;;;;;;;;;;;;;8.28;68.54;96842.69;4217696;28;5736;-65
2022/03/03 09:45:28;;;;;;;;;;;;;;;8.26;68.63;96842.03;4217673;28;5672;-65
2022/03/03 09:47:33;;;;;;;;;;;;;;;8.09;68.91;96846.63;4217625;28;6016;-64
2022/03/03 09:49:34;;;;;;;;;;;;;;;8.03;69.06;96842.03;4217429;28;7773;-64
2022/03/03 09:51:36;;;;;;;;;;;;;;;8.21;68.96;96847.03;4217254;28;5803;-65
2022/03/03 09:53:40;;;;;;;;;;;;;;;8.13;68.22;96840.81;4217492;28;5822;-65
2022/03/03 09:55:43;;;;;;;;;;;;;;;8.30;67.60;96843.34;4217792;28;5818;-64
2022/03/03 09:57:45;;;;;;;;;;;;;;;8.29;68.23;96833.81;4217368;28;5697;-64
2022/03/03 09:59:47;;;;;;;;;;;;;;;8.28;68.93;96838.25;4217282;28;5676;-64
2022/03/03 10:01:49;;;;;;;;;;;;;;;8.29;69.25;96831.16;4217395;28;5680;-64
2022/03/03 10:03:51;;;;;;;;;;;;;;;8.09;70.13;96828.19;4217301;28;5807;-64
2022/03/03 10:05:53;;;;;;;;;;;;;;;8.09;67.74;96826.38;4217119;28;5946;-64
2022/03/03 10:08:00;;;;;;;;;;;;;;;8.23;67.02;96826.59;4216894;28;7814;-64
2022/03/03 10:10:10;;;;;;;;;;;;;;;8.22;66.70;96827.59;4217524;28;5763;-64
2022/03/03 10:12:13;;;;;;;;;;;;;;;8.33;65.84;96827.16;4217309;28;5946;-65
2022/03/03 10:14:30;;;;;;;;;;;;;;;8.30;64.61;96824.91;4217515;28;5690;-64
2022/03/03 10:16:32;;;;;;;;;;;;;;;8.34;64.11;96831.44;4215322;28;5684;-65
2022/03/03 10:18:34;;;;;;;;;;;;;;;8.27;62.63;96825.22;4225712;28;5669;-66
2022/03/03 10:20:45;;;;;;;;;;;;;;;8.46;63.00;96814.22;4217496;28;6354;-64
2022/03/03 10:22:59;;;;;;;;;;;;;;;8.30;63.47;96817.00;4216694;28;5665;-65
2022/03/03 10:25:01;;;;;;;;;;;;;;;8.17;65.70;96822.88;4217246;28;5767;-65
2022/03/03 10:27:07;;;;;;;;;;;;;;;7.89;66.99;96817.31;4216762;28;6415;-65
2022/03/03 10:29:21;;;;;;;;;;;;;;;8.17;65.76;96821.06;4216967;28;5814;-64
2022/03/03 10:31:22;;;;;;;;;;;;;;;8.15;62.97;96815.16;4216844;28;5716;-64
2022/03/03 10:33:29;;;;;;;;;;;;;;;8.24;64.55;96817.69;4215441;28;5733;-64
2022/03/03 10:35:31;;;;;;;;;;;;;;;8.35;63.90;96819.94;4216713;28;5258;-65
2022/03/03 10:37:33;;;;;;;;;;;;;;;8.25;63.51;96811.44;4216455;28;7758;-64
2022/03/03 10:39:47;;;;;;;;;;;;;;;8.30;61.27;96809.09;4216759;28;5677;-64
2022/03/03 10:41:55;;;;;;;;;;;;;;;8.14;59.98;96804.78;4216822;28;5680;-64
2022/03/03 10:43:58;;;;;;;;;;;;;;;8.22;57.08;96804.72;4216706;28;5887;-64
2022/03/03 10:46:02;;;;;;;;;;;;;;;8.39;59.00;96797.53;4216211;28;7177;-64
2022/03/03 10:48:06;;;;;;;;;;;;;;;8.53;58.37;96788.81;4216634;28;5664;-65
2022/03/03 10:50:08;;;;;;;;;;;;;;;8.47;56.64;96792.16;4216548;28;5838;-64
2022/03/03 10:52:12;;;;;;;;;;;;;;;8.58;58.23;96797.00;4216061;28;5763;-66
2022/03/03 10:54:14;;;;;;;;;;;;;;;8.50;56.53;96789.19;4216704;28;5692;-64
2022/03/03 10:56:48;;;;;;;;;;;;;;;8.57;55.76;96787.44;4216841;28;5672;-65
2022/03/03 10:58:58;;;;;;;;;;;;;;;8.46;54.56;96786.06;4216715;28;5684;-65
2022/03/03 11:01:00;;;;;;;;;;;;;;;8.56;56.11;96785.00;4216216;28;5751;-65
2022/03/03 11:03:04;;;;;;;;;;;;;;;8.65;54.97;96781.28;4216775;28;5853;-65
2022/03/03 11:05:09;;;;;;;;;;;;;;;8.68;56.12;96781.72;4216183;28;5676;-65
2022/03/03 11:07:11;;;;;;;;;;;;;;;8.63;56.46;96784.09;4216078;28;5764;-64
2022/03/03 11:09:14;;;;;;;;;;;;;;;8.70;56.30;96774.44;4216120;28;5677;-64
2022/03/03 11:11:17;;;;;;;;;;;;;;;8.69;56.35;96775.47;4216413;28;5685;-64
2022/03/03 11:13:20;;;;;;;;;;;;;;;8.79;58.02;96766.47;4216489;28;5704;-65
2022/03/03 11:15:24;;;;;;;;;;;;;;;8.58;58.32;96769.81;4214870;28;5824;-65
2022/03/03 11:17:26;;;;;;;;;;;;;;;8.80;57.44;96763.66;4233641;28;5621;-64
2022/03/03 11:19:29;;;;;;;;;;;;;;;8.95;55.91;96766.28;4217262;28;5677;-64
2022/03/03 11:21:30;;;;;;;;;;;;;;;8.96;55.11;96762.66;4216167;28;5841;-64
2022/03/03 11:23:59;;;;;;;;;;;;;;;9.01;53.32;96757.63;4216363;28;5744;-65
2022/03/03 11:26:02;;;;;;;;;;;;;;;8.92;54.23;96756.91;4213886;28;6277;-65
2022/03/03 11:28:05;;;;;;;;;;;;;;;9.03;54.18;96747.72;4216388;28;5701;-69
2022/03/03 11:30:25;;;;;;;;;;;;;;;9.13;53.69;96745.59;4216366;28;5853;-70
2022/03/03 11:32:28;;;;;;;;;;;;;;;9.00;53.42;96745.44;4216717;28;6239;-67
2022/03/03 11:34:44;;;;;;;;;;;;;;;9.09;53.35;96739.06;4216530;28;5831;-65
2022/03/03 11:36:50;;;;;;;;;;;;;;;9.05;53.02;96735.16;4215689;28;5677;-65
2022/03/03 11:39:00;;;;;;;;;;;;;;;8.98;54.10;96736.91;4216390;28;5735;-65
2022/03/03 11:41:06;;;;;;;;;;;;;;;8.98;53.35;96729.81;4214521;28;6454;-65
2022/03/03 11:43:12;;;;;;;;;;;;;;;8.99;52.85;96728.00;4216351;28;5680;-65
2022/03/03 11:45:18;;;;;;;;;;;;;;;9.05;52.85;96724.59;4216353;28;5708;-65
2022/03/03 11:47:34;;;;;;;;;;;;;;;9.13;53.12;96721.88;4216260;28;5684;-65
2022/03/03 11:49:37;;;;;;;;;;;;;;;9.09;52.81;96719.81;4216308;28;5669;-65
2022/03/03 11:51:39;;;;;;;;;;;;;;;9.05;52.51;96720.16;4216012;28;5692;-65
2022/03/03 11:54:07;;;;;;;;;;;;;;;9.13;53.48;96716.59;4219524;28;5785;-65
2022/03/03 11:56:11;;;;;;;;;;;;;;;9.15;52.62;96719.84;4219729;28;5695;-65
2022/03/03 11:58:38;;;;;;;;;;;;;;;9.21;51.92;96713.84;4219655;28;5673;-65
2022/03/03 12:01:08;;;;;;;;;;;;;;;9.01;51.94;96705.72;4219549;28;5673;-65
2022/03/03 12:03:17;;;;;;;;;;;;;;;8.96;52.03;96704.66;4219477;28;5669;-64
2022/03/03 12:05:28;;;;;;;;;;;;;;;9.08;52.76;96703.16;4219124;28;5851;-66
2022/03/03 12:07:30;;;;;;;;;;;;;;;9.13;52.28;96695.50;4219185;28;5805;-65
2022/03/03 12:09:40;;;;;;;;;;;;;;;9.29;52.76;96691.81;4219057;28;6490;-65
2022/03/03 12:11:43;;;;;;;;;;;;;;;9.39;51.08;96686.22;4219298;28;5875;-65
2022/03/03 12:13:50;;;;;;;;;;;;;;;9.17;49.66;96685.38;4219344;28;5685;-65
2022/03/03 12:16:14;;;;;;;;;;;;;;;9.24;49.87;96681.00;4225151;28;5602;-65
2022/03/03 12:18:16;;;;;;;;;;;;;;;9.39;51.00;96680.94;4229899;28;5685;-65
2022/03/03 12:20:24;;;;;;;;;;;;;;;9.47;50.93;96678.19;4218914;28;5738;-64
2022/03/03 12:23:13;;;;;;;;;;;;;;;9.54;50.13;96671.16;4218806;28;5665;-64
2022/03/03 12:25:51;;;;;;;;;;;;;;;9.49;51.21;96673.53;4218974;28;5692;-64
2022/03/03 12:28:18;;;;;;;;;;;;;;;9.47;52.38;96675.53;4218920;28;5668;-64
2022/03/03 12:30:20;;;;;;;;;;;;;;;9.52;52.64;96670.53;4218693;28;5810;-65
2022/03/03 12:32:41;;;;;;;;;;;;;;;9.59;54.01;96663.47;4218508;28;5720;-66
2022/03/03 12:34:45;;;;;;;;;;;;;;;9.59;53.91;96659.00;4218555;28;6407;-66
2022/03/03 12:36:54;;;;;;;;;;;;;;;9.68;52.86;96662.34;4217596;28;5676;-63
2022/03/03 12:38:56;;;;;;;;;;;;;;;9.62;51.51;96663.91;4219780;28;5759;-65
2022/03/03 12:41:10;;;;;;;;;;;;;;;9.71;52.71;96654.03;4234390;28;5514;-65
2022/03/03 12:43:16;;;;;;;;;;;;;;;9.71;51.71;96656.66;4218368;28;5689;-65
2022/03/03 12:45:19;;;;;;;;;;;;;;;9.78;51.71;96647.00;4235307;28;5083;-65
2022/03/03 12:47:36;;;;;;;;;;;;;;;9.78;50.05;96644.34;4233640;28;6405;-66
2022/03/03 12:49:41;;;;;;;;;;;;;;;9.75;50.08;96639.47;4231425;28;5743;-66
2022/03/03 12:51:45;;;;;;;;;;;;;;;9.84;50.60;96640.94;4233969;28;5669;-66
2022/03/03 12:53:49;;;;;;;;;;;;;;;9.88;50.00;96631.63;4234340;28;5850;-66
2022/03/03 12:55:51;;;;;;;;;;;;;;;9.95;50.04;96633.50;4233762;28;6378;-66
2022/03/03 12:57:55;;;;;;;;;;;;;;;9.89;49.08;96629.81;4234124;28;5103;-66
2022/03/03 13:00:02;;;;;;;;;;;;;;;9.99;50.43;96626.84;4234048;28;8544;-64
2022/03/03 13:02:04;;;;;;;;;;;;;;;10.04;49.66;96619.94;4234142;28;5601;-64
2022/03/03 13:04:14;;;;;;;;;;;;;;;9.91;48.36;96615.41;4233667;28;5707;-64
2022/03/03 13:06:20;;;;;;;;;;;;;;;10.04;49.33;96619.13;4233022;28;5609;-64
2022/03/03 13:08:33;;;;;;;;;;;;;;;9.97;48.85;96611.19;4232928;28;5699;-64
2022/03/03 13:10:39;;;;;;;;;;;;;;;10.02;50.24;96606.13;4233815;28;6355;-64
2022/03/03 13:12:44;;;;;;;;;;;;;;;9.98;50.17;96606.72;4233773;28;5738;-65
2022/03/03 13:15:00;;;;;;;;;;;;;;;10.10;50.55;96602.53;4233052;28;5091;-65
2022/03/03 13:17:08;;;;;;;;;;;;;;;10.19;50.77;96596.03;4229828;28;5663;-64
2022/03/03 13:19:11;;;;;;;;;;;;;;;10.25;50.81;96599.78;4229910;28;5738;-65
2022/03/03 13:21:27;;;;;;;;;;;;;;;10.22;50.14;96595.72;4233434;28;5601;-65
2022/03/03 13:23:29;;;;;;;;;;;;;;;10.19;50.31;96594.25;4233223;28;5614;-65
2022/03/03 13:25:31;;;;;;;;;;;;;;;10.25;50.78;96590.03;4233264;28;5767;-65
2022/03/03 13:27:43;;;;;;;;;;;;;;;10.10;50.73;96595.41;4233242;28;5661;-65
2022/03/03 13:29:45;;;;;;;;;;;;;;;10.05;50.93;96581.94;4233500;28;5604;-65
2022/03/03 13:31:48;;;;;;;;;;;;;;;10.21;51.90;96583.47;4233283;28;5586;-64
2022/03/03 13:33:52;;;;;;;;;;;;;;;10.28;52.42;96584.34;4233276;28;5610;-65
2022/03/03 13:35:54;;;;;;;;;;;;;;;10.34;52.76;96588.84;4230933;28;5718;-64
2022/03/03 13:38:05;;;;;;;;;;;;;;;10.37;52.92;96583.16;4233181;28;5656;-64
2022/03/03 13:40:22;;;;;;;;;;;;;;;10.38;53.39;96578.69;4233280;28;5670;-64
2022/03/03 13:42:26;;;;;;;;;;;;;;;10.23;53.64;96576.19;4229332;28;5602;-64
2022/03/03 13:44:30;;;;;;;;;;;;;;;10.36;53.44;96581.53;4232414;28;5825;-64
2022/03/03 13:46:31;;;;;;;;;;;;;;;10.34;53.37;96573.00;4233372;28;5822;-64
2022/03/03 13:48:34;;;;;;;;;;;;;;;10.45;53.69;96564.50;4232401;28;5966;-64
2022/03/03 13:50:41;;;;;;;;;;;;;;;10.42;53.43;96570.19;4229085;28;5659;-64
2022/03/03 13:52:43;;;;;;;;;;;;;;;10.41;53.49;96567.72;4232774;28;5671;-64
2022/03/03 13:54:52;;;;;;;;;;;;;;;10.35;53.70;96563.25;4233017;28;5764;-65
2022/03/03 13:56:54;;;;;;;;;;;;;;;10.27;53.67;96561.56;4232564;28;6416;-64
2022/03/03 13:59:22;;;;;;;;;;;;;;;10.25;53.65;96555.69;4232970;28;6336;-64
2022/03/03 14:01:27;;;;;;;;;;;;;;;10.21;53.96;96554.41;4229380;28;5843;-64
2022/03/03 14:03:35;;;;;;;;;;;;;;;10.41;53.62;96547.41;4232700;28;5663;-65
2022/03/03 14:05:53;;;;;;;;;;;;;;;10.51;53.30;96552.31;4232577;27;5726;-64
2022/03/03 14:07:54;;;;;;;;;;;;;;;10.50;53.47;96551.50;4214160;28;5116;-65
2022/03/03 14:10:01;;;;;;;;;;;;;;;10.55;53.18;96548.28;4231978;28;5644;-65
2022/03/03 14:12:12;;;;;;;;;;;;;;;10.53;53.43;96544.19;4232696;28;5675;-64
2022/03/03 14:14:20;;;;;;;;;;;;;;;10.59;53.54;96535.47;4228822;28;5709;-65
2022/03/03 14:16:33;;;;;;;;;;;;;;;10.59;53.03;96533.66;4232426;28;5820;-65
2022/03/03 14:18:38;;;;;;;;;;;;;;;10.55;53.43;96539.53;4227999;28;5647;-65
2022/03/03 14:20:40;;;;;;;;;;;;;;;10.61;53.58;96541.38;4232856;28;5656;-65
2022/03/03 14:22:42;;;;;;;;;;;;;;;10.73;53.64;96545.06;4232231;28;5659;-65
2022/03/03 14:24:48;;;;;;;;;;;;;;;10.79;53.51;96539.81;4232722;28;5663;-65
2022/03/03 14:26:50;;;;;;;;;;;;;;;10.80;52.81;96535.31;4232707;28;5738;-64
2022/03/03 14:28:52;;;;;;;;;;;;;;;10.80;52.90;96532.69;4232303;28;5651;-65
2022/03/03 14:30:54;;;;;;;;;;;;;;;10.79;52.81;96528.41;4232574;27;5640;-65
2022/03/03 14:32:56;;;;;;;;;;;;;;;10.84;53.21;96530.44;4232652;28;5739;-65
2022/03/03 14:34:58;;;;;;;;;;;;;;;10.83;52.97;96534.91;4230589;28;5613;-65
2022/03/03 14:37:00;;;;;;;;;;;;;;;10.72;53.03;96532.84;4232416;28;5735;-65
2022/03/03 14:39:01;;;;;;;;;;;;;;;10.86;53.08;96534.50;4228560;28;5746;-64
2022/03/03 14:41:03;;;;;;;;;;;;;;;10.91;52.58;96529.44;4231491;28;5637;-65
2022/03/03 14:43:05;;;;;;;;;;;;;;;10.93;52.94;96527.41;4231374;28;5606;-65
2022/03/03 14:45:10;;;;;;;;;;;;;;;10.91;52.95;96526.78;4231761;28;5671;-65
2022/03/03 14:47:11;;;;;;;;;;;;;;;10.93;52.54;96524.75;4232489;27;5773;-65
2022/03/03 14:49:13;;;;;;;;;;;;;;;10.95;52.54;96528.00;4232228;28;5610;-65
2022/03/03 14:51:15;;;;;;;;;;;;;;;10.96;52.80;96524.34;4230809;28;5663;-64
2022/03/03 14:53:17;;;;;;;;;;;;;;;10.97;52.99;96525.97;4232105;28;5672;-65
2022/03/03 14:55:21;;;;;;;;;;;;;;;10.99;52.46;96523.16;4230722;28;5724;-65
2022/03/03 14:57:24;;;;;;;;;;;;;;;10.99;52.15;96521.31;4229761;28;6079;-65
2022/03/03 14:59:26;;;;;;;;;;;;;;;10.99;52.22;96518.69;4231566;28;5667;-64
2022/03/03 15:01:27;;;;;;;;;;;;;;;11.01;51.50;96516.63;4229667;28;5679;-64
2022/03/03 15:03:29;;;;;;;;;;;;;;;11.03;52.13;96513.78;4232150;28;6487;-65
2022/03/03 15:05:31;;;;;;;;;;;;;;;11.07;52.02;96515.00;4231845;28;5817;-65
2022/03/03 15:07:33;;;;;;;;;;;;;;;11.11;52.05;96512.78;4227475;28;5586;-64
2022/03/03 15:09:35;;;;;;;;;;;;;;;11.11;51.75;96503.00;4232253;28;5780;-65
2022/03/03 15:11:37;;;;;;;;;;;;;;;11.03;52.20;96513.78;4230175;28;5889;-65
2022/03/03 15:13:38;;;;;;;;;;;;;;;11.02;52.40;96507.69;4229361;28;5786;-64
2022/03/03 15:15:40;;;;;;;;;;;;;;;11.06;51.97;96513.38;4228061;28;5645;-65
2022/03/03 15:17:42;;;;;;;;;;;;;;;11.03;51.98;96511.13;4227873;28;5594;-65
2022/03/03 15:19:44;;;;;;;;;;;;;;;10.96;51.70;96507.66;4232162;28;5749;-65
2022/03/03 15:21:46;;;;;;;;;;;;;;;10.81;51.91;96504.41;4231444;28;5594;-65
2022/03/03 15:23:47;;;;;;;;;;;;;;;10.84;52.48;96504.00;4231839;28;5657;-65
2022/03/03 15:25:49;;;;;;;;;;;;;;;10.95;52.38;96500.75;4232122;28;5753;-65
2022/03/03 15:27:51;;;;;;;;;;;;;;;11.00;52.59;96499.16;4233440;28;5706;-65
2022/03/03 15:29:58;;;;;;;;;;;;;;;11.02;52.24;96494.47;4236733;28;5711;-65
2022/03/03 15:32:02;;;;;;;;;;;;;;;10.97;52.00;96496.06;4233877;28;5598;-65
2022/03/03 15:38:45;;;;;;;;;;;;;;;11.04;52.20;96508.28;4234872;28;5920;-66
2022/03/03 15:40:47;;;;;;;;;;;;;;;11.09;52.23;96500.53;4236686;28;5777;-66
2022/03/03 15:42:49;;;;;;;;;;;;;;;11.08;51.83;96493.63;4226975;28;5616;-65
2022/03/03 15:44:51;;;;;;;;;;;;;;;11.07;52.01;96499.94;4229868;28;5858;-65
2022/03/03 15:46:54;;;;;;;;;;;;;;;11.10;52.03;96501.38;4230851;28;5857;-65
2022/03/03 15:48:56;;;;;;;;;;;;;;;10.97;51.66;96499.53;4230591;28;5669;-65
2022/03/03 15:50:58;;;;;;;;;;;;;;;11.01;52.56;96500.78;4224189;27;5767;-65
2022/03/03 15:53:00;;;;;;;;;;;;;;;11.05;51.80;96499.34;4219116;28;5783;-65
2022/03/03 15:55:03;;;;;;;;;;;;;;;11.04;51.91;96503.00;4212464;28;5724;-64
2022/03/03 15:57:06;;;;;;;;;;;;;;;11.00;52.32;96499.16;4231167;28;5831;-65
2022/03/03 15:59:08;;;;;;;;;;;;;;;10.67;54.54;96500.94;4220731;27;6512;-65
2022/03/03 16:01:11;;;;;;;;;;;;;;;10.67;54.52;96506.22;4228966;28;5809;-65
2022/03/03 16:03:13;;;;;;;;;;;;;;;10.60;54.90;96503.53;4229401;28;5692;-65
2022/03/03 16:05:15;;;;;;;;;;;;;;;10.66;55.61;96512.53;4231431;27;5790;-66
2022/03/03 16:07:18;;;;;;;;;;;;;;;10.60;56.05;96513.31;4226857;28;5697;-64
2022/03/03 16:09:25;;;;;;;;;;;;;;;10.49;57.33;96510.22;4227254;28;5677;-64
2022/03/03 16:11:27;;;;;;;;;;;;;;;10.40;58.05;96508.78;4227772;28;5712;-65
2022/03/03 16:13:29;;;;;;;;;;;;;;;10.47;57.85;96508.81;4228163;28;5723;-65
2022/03/03 16:15:30;;;;;;;;;;;;;;;10.49;57.48;96504.94;4221109;27;6195;-65
2022/03/03 16:17:32;;;;;;;;;;;;;;;10.50;57.83;96511.84;4224834;27;5685;-66
2022/03/03 16:19:34;;;;;;;;;;;;;;;10.47;57.69;96506.97;4225945;28;5685;-65
2022/03/03 16:21:38;;;;;;;;;;;;;;;10.45;57.32;96502.91;4232994;28;5708;-66
2022/03/03 16:23:40;;;;;;;;;;;;;;;10.45;57.52;96511.66;4232794;28;5701;-65
2022/03/03 16:26:01;;;;;;;;;;;;;;;10.38;57.57;96507.34;4233172;28;5840;-65
2022/03/03 16:28:03;;;;;;;;;;;;;;;10.38;57.39;96512.63;4232789;28;5637;-65
2022/03/03 16:30:06;;;;;;;;;;;;;;;10.37;57.42;96506.53;4232718;28;5771;-65
2022/03/03 16:32:11;;;;;;;;;;;;;;;10.34;57.30;96508.78;4230640;28;5711;-65
2022/03/03 16:34:14;;;;;;;;;;;;;;;10.35;56.91;96505.94;4223912;27;5783;-65